sensor_id;sensor_type;location;lat;lon;timestamp;temperature;humidity
28010;DHT22;15334;49.494;8.410;2023-05-29T00:00:43;18.90;79.30
28010;DHT22;15334;49.494;8.410;2023-05-29T00:03:11;18.80;79.80
28010;DHT22;15334;49.494;8.410;2023-05-29T00:05:41;18.80;80.30
28010;DHT22;15334;49.494;8.410;2023-05-29T00:08:09;18.70;80.70
28010;DHT22;15334;49.494;8.410;2023-05-29T00:10:36;18.60;81.90
28010;DHT22;15334;49.494;8.410;2023-05-29T00:13:04;18.50;82.00
28010;DHT22;15334;49.494;8.410;2023-05-29T00:15:34;18.40;82.90
28010;DHT22;15334;49.494;8.410;2023-05-29T00:18:02;18.20;83.10
28010;DHT22;15334;49.494;8.410;2023-05-29T00:20:30;18.10;83.90
28010;DHT22;15334;49.494;8.410;2023-05-29T00:23:02;18.00;84.10
28010;DHT22;15334;49.494;8.410;2023-05-29T00:25:31;17.90;84.60
28010;DHT22;15334;49.494;8.410;2023-05-29T00:27:59;17.70;85.20
28010;DHT22;15334;49.494;8.410;2023-05-29T00:30:27;17.60;85.80
28010;DHT22;15334;49.494;8.410;2023-05-29T00:32:55;17.60;86.50
28010;DHT22;15334;49.494;8.410;2023-05-29T00:35:23;17.50;87.40
28010;DHT22;15334;49.494;8.410;2023-05-29T00:37:51;17.40;87.40
28010;DHT22;15334;49.494;8.410;2023-05-29T00:40:20;17.40;87.30
28010;DHT22;15334;49.494;8.410;2023-05-29T00:42:48;17.30;88.60
28010;DHT22;15334;49.494;8.410;2023-05-29T00:45:16;17.30;87.80
28010;DHT22;15334;49.494;8.410;2023-05-29T00:47:45;17.20;87.80
28010;DHT22;15334;49.494;8.410;2023-05-29T00:50:14;17.20;87.80
28010;DHT22;15334;49.494;8.410;2023-05-29T00:52:43;17.10;88.10
28010;DHT22;15334;49.494;8.410;2023-05-29T00:55:12;17.10;88.30
28010;DHT22;15334;49.494;8.410;2023-05-29T00:57:42;17.10;88.60
28010;DHT22;15334;49.494;8.410;2023-05-29T01:00:12;17.10;88.90
28010;DHT22;15334;49.494;8.410;2023-05-29T01:02:42;17.00;89.10
28010;DHT22;15334;49.494;8.410;2023-05-29T01:05:11;17.00;89.50
28010;DHT22;15334;49.494;8.410;2023-05-29T01:07:40;17.00;89.50
28010;DHT22;15334;49.494;8.410;2023-05-29T01:10:08;17.00;89.50
28010;DHT22;15334;49.494;8.410;2023-05-29T01:12:40;17.00;90.00
28010;DHT22;15334;49.494;8.410;2023-05-29T01:15:14;16.90;90.00
28010;DHT22;15334;49.494;8.410;2023-05-29T01:17:54;16.80;90.40
28010;DHT22;15334;49.494;8.410;2023-05-29T01:20:32;16.80;90.60
28010;DHT22;15334;49.494;8.410;2023-05-29T01:23:32;16.60;91.00
28010;DHT22;15334;49.494;8.410;2023-05-29T01:26:11;16.60;91.20
28010;DHT22;15334;49.494;8.410;2023-05-29T01:28:47;16.70;91.50
28010;DHT22;15334;49.494;8.410;2023-05-29T01:31:19;16.60;91.70
28010;DHT22;15334;49.494;8.410;2023-05-29T01:33:52;16.60;92.00
28010;DHT22;15334;49.494;8.410;2023-05-29T01:36:20;16.50;92.50
28010;DHT22;15334;49.494;8.410;2023-05-29T01:38:49;16.40;92.80
28010;DHT22;15334;49.494;8.410;2023-05-29T01:41:18;16.40;93.10
28010;DHT22;15334;49.494;8.410;2023-05-29T01:43:49;16.30;93.50
28010;DHT22;15334;49.494;8.410;2023-05-29T01:46:19;16.20;94.10
28010;DHT22;15334;49.494;8.410;2023-05-29T01:48:48;16.20;94.60
28010;DHT22;15334;49.494;8.410;2023-05-29T01:51:17;16.10;95.20
28010;DHT22;15334;49.494;8.410;2023-05-29T01:53:45;16.10;95.80
28010;DHT22;15334;49.494;8.410;2023-05-29T01:56:13;16.10;96.30
28010;DHT22;15334;49.494;8.410;2023-05-29T01:58:41;16.00;96.80
28010;DHT22;15334;49.494;8.410;2023-05-29T02:01:11;15.90;97.40
28010;DHT22;15334;49.494;8.410;2023-05-29T02:03:39;15.80;98.10
28010;DHT22;15334;49.494;8.410;2023-05-29T02:06:07;15.60;99.10
28010;DHT22;15334;49.494;8.410;2023-05-29T02:08:35;15.50;99.90
28010;DHT22;15334;49.494;8.410;2023-05-29T02:11:03;15.30;99.90
28010;DHT22;15334;49.494;8.410;2023-05-29T02:13:31;15.20;99.90
28010;DHT22;15334;49.494;8.410;2023-05-29T02:15:59;15.20;99.90
28010;DHT22;15334;49.494;8.410;2023-05-29T02:18:29;15.20;99.90
28010;DHT22;15334;49.494;8.410;2023-05-29T02:20:57;15.30;99.90
28010;DHT22;15334;49.494;8.410;2023-05-29T02:23:26;15.20;99.90
28010;DHT22;15334;49.494;8.410;2023-05-29T02:25:54;15.20;99.90
28010;DHT22;15334;49.494;8.410;2023-05-29T02:28:22;15.10;99.90
28010;DHT22;15334;49.494;8.410;2023-05-29T02:30:50;15.10;99.90
28010;DHT22;15334;49.494;8.410;2023-05-29T02:33:19;15.00;99.90
28010;DHT22;15334;49.494;8.410;2023-05-29T02:35:48;15.00;99.90
28010;DHT22;15334;49.494;8.410;2023-05-29T02:38:16;14.90;99.90
28010;DHT22;15334;49.494;8.410;2023-05-29T02:40:45;15.00;99.90
28010;DHT22;15334;49.494;8.410;2023-05-29T02:43:13;15.00;99.90
28010;DHT22;15334;49.494;8.410;2023-05-29T02:45:41;15.00;99.90
28010;DHT22;15334;49.494;8.410;2023-05-29T02:48:10;15.00;99.90
28010;DHT22;15334;49.494;8.410;2023-05-29T02:50:37;14.90;99.90
28010;DHT22;15334;49.494;8.410;2023-05-29T02:53:07;14.90;99.90
28010;DHT22;15334;49.494;8.410;2023-05-29T02:55:35;14.80;99.90
28010;DHT22;15334;49.494;8.410;2023-05-29T02:58:03;14.70;99.90
28010;DHT22;15334;49.494;8.410;2023-05-29T03:00:31;14.70;99.90
28010;DHT22;15334;49.494;8.410;2023-05-29T03:02:59;14.70;99.90
28010;DHT22;15334;49.494;8.410;2023-05-29T03:05:28;14.70;99.90
28010;DHT22;15334;49.494;8.410;2023-05-29T03:07:56;14.70;99.90
28010;DHT22;15334;49.494;8.410;2023-05-29T03:10:25;14.70;99.90
28010;DHT22;15334;49.494;8.410;2023-05-29T03:12:53;14.70;99.90
28010;DHT22;15334;49.494;8.410;2023-05-29T03:15:22;14.70;99.90
28010;DHT22;15334;49.494;8.410;2023-05-29T03:17:50;14.70;99.90
28010;DHT22;15334;49.494;8.410;2023-05-29T03:20:18;14.70;99.90
28010;DHT22;15334;49.494;8.410;2023-05-29T03:22:46;14.70;99.90
28010;DHT22;15334;49.494;8.410;2023-05-29T03:25:15;14.70;99.90
28010;DHT22;15334;49.494;8.410;2023-05-29T03:27:45;14.70;99.90
28010;DHT22;15334;49.494;8.410;2023-05-29T03:30:13;14.70;99.90
28010;DHT22;15334;49.494;8.410;2023-05-29T03:32:41;14.70;99.90
28010;DHT22;15334;49.494;8.410;2023-05-29T03:35:09;14.70;99.90
28010;DHT22;15334;49.494;8.410;2023-05-29T03:37:37;14.60;99.90
28010;DHT22;15334;49.494;8.410;2023-05-29T03:40:06;14.70;99.90
28010;DHT22;15334;49.494;8.410;2023-05-29T03:42:35;14.70;99.90
28010;DHT22;15334;49.494;8.410;2023-05-29T03:45:06;14.70;99.90
28010;DHT22;15334;49.494;8.410;2023-05-29T03:47:34;14.70;99.90
28010;DHT22;15334;49.494;8.410;2023-05-29T03:50:04;14.70;99.90
28010;DHT22;15334;49.494;8.410;2023-05-29T03:52:32;14.60;99.90
28010;DHT22;15334;49.494;8.410;2023-05-29T03:55:00;14.60;99.90
28010;DHT22;15334;49.494;8.410;2023-05-29T03:57:28;14.60;99.90
28010;DHT22;15334;49.494;8.410;2023-05-29T03:59:56;14.60;99.90
28010;DHT22;15334;49.494;8.410;2023-05-29T04:02:26;14.70;99.90
28010;DHT22;15334;49.494;8.410;2023-05-29T04:04:54;14.70;99.90
28010;DHT22;15334;49.494;8.410;2023-05-29T04:07:22;14.80;99.90
28010;DHT22;15334;49.494;8.410;2023-05-29T04:09:51;14.80;99.90
28010;DHT22;15334;49.494;8.410;2023-05-29T04:12:19;14.80;99.90
28010;DHT22;15334;49.494;8.410;2023-05-29T04:14:47;14.90;99.90
28010;DHT22;15334;49.494;8.410;2023-05-29T04:17:15;14.90;99.90
28010;DHT22;15334;49.494;8.410;2023-05-29T04:19:44;15.00;99.90
28010;DHT22;15334;49.494;8.410;2023-05-29T04:22:13;15.00;99.90
28010;DHT22;15334;49.494;8.410;2023-05-29T04:24:41;15.20;99.90
28010;DHT22;15334;49.494;8.410;2023-05-29T04:27:09;15.10;99.90
28010;DHT22;15334;49.494;8.410;2023-05-29T04:29:40;15.20;99.90
28010;DHT22;15334;49.494;8.410;2023-05-29T04:32:09;15.20;99.90
28010;DHT22;15334;49.494;8.410;2023-05-29T04:34:38;15.20;99.90
28010;DHT22;15334;49.494;8.410;2023-05-29T04:37:08;15.30;99.90
28010;DHT22;15334;49.494;8.410;2023-05-29T04:39:36;15.50;99.90
28010;DHT22;15334;49.494;8.410;2023-05-29T04:42:04;15.60;99.90
28010;DHT22;15334;49.494;8.410;2023-05-29T04:44:33;15.60;99.90
28010;DHT22;15334;49.494;8.410;2023-05-29T04:47:01;15.70;99.90
28010;DHT22;15334;49.494;8.410;2023-05-29T04:49:30;15.70;99.90
28010;DHT22;15334;49.494;8.410;2023-05-29T04:51:58;15.80;99.90
28010;DHT22;15334;49.494;8.410;2023-05-29T04:54:28;15.80;99.90
28010;DHT22;15334;49.494;8.410;2023-05-29T04:56:57;15.90;99.90
28010;DHT22;15334;49.494;8.410;2023-05-29T04:59:24;16.00;99.90
28010;DHT22;15334;49.494;8.410;2023-05-29T05:01:53;16.10;99.90
28010;DHT22;15334;49.494;8.410;2023-05-29T05:04:25;16.20;99.90
28010;DHT22;15334;49.494;8.410;2023-05-29T05:06:56;16.30;99.90
28010;DHT22;15334;49.494;8.410;2023-05-29T05:09:25;16.50;99.90
28010;DHT22;15334;49.494;8.410;2023-05-29T05:12:11;16.50;99.90
28010;DHT22;15334;49.494;8.410;2023-05-29T05:14:45;16.50;99.90
28010;DHT22;15334;49.494;8.410;2023-05-29T05:17:15;16.60;99.90
28010;DHT22;15334;49.494;8.410;2023-05-29T05:19:50;16.60;99.90
28010;DHT22;15334;49.494;8.410;2023-05-29T05:22:24;16.70;99.90
28010;DHT22;15334;49.494;8.410;2023-05-29T05:24:58;16.80;99.90
28010;DHT22;15334;49.494;8.410;2023-05-29T05:27:35;16.90;99.90
28010;DHT22;15334;49.494;8.410;2023-05-29T05:30:08;17.10;99.90
28010;DHT22;15334;49.494;8.410;2023-05-29T05:32:38;17.20;99.90
28010;DHT22;15334;49.494;8.410;2023-05-29T05:35:07;17.50;99.90
28010;DHT22;15334;49.494;8.410;2023-05-29T05:37:38;17.60;99.90
28010;DHT22;15334;49.494;8.410;2023-05-29T05:40:07;17.70;99.90
28010;DHT22;15334;49.494;8.410;2023-05-29T05:42:37;17.70;99.90
28010;DHT22;15334;49.494;8.410;2023-05-29T05:45:06;17.90;99.90
28010;DHT22;15334;49.494;8.410;2023-05-29T05:47:34;18.00;99.90
28010;DHT22;15334;49.494;8.410;2023-05-29T05:50:02;18.10;99.90
28010;DHT22;15334;49.494;8.410;2023-05-29T05:52:30;18.10;99.90
28010;DHT22;15334;49.494;8.410;2023-05-29T05:55:00;18.20;99.90
28010;DHT22;15334;49.494;8.410;2023-05-29T05:57:28;18.20;99.90
28010;DHT22;15334;49.494;8.410;2023-05-29T05:59:57;18.30;99.90
28010;DHT22;15334;49.494;8.410;2023-05-29T06:02:25;18.40;99.90
28010;DHT22;15334;49.494;8.410;2023-05-29T06:04:53;18.40;99.90
28010;DHT22;15334;49.494;8.410;2023-05-29T06:07:21;18.20;99.90
28010;DHT22;15334;49.494;8.410;2023-05-29T06:09:50;18.10;99.90
28010;DHT22;15334;49.494;8.410;2023-05-29T06:12:18;18.10;99.90
28010;DHT22;15334;49.494;8.410;2023-05-29T06:14:46;18.20;99.90
28010;DHT22;15334;49.494;8.410;2023-05-29T06:17:15;18.20;99.90
28010;DHT22;15334;49.494;8.410;2023-05-29T06:19:43;18.20;99.90
28010;DHT22;15334;49.494;8.410;2023-05-29T06:22:12;18.20;99.90
28010;DHT22;15334;49.494;8.410;2023-05-29T06:24:40;18.20;99.90
28010;DHT22;15334;49.494;8.410;2023-05-29T06:27:08;18.00;99.90
28010;DHT22;15334;49.494;8.410;2023-05-29T06:29:36;17.90;99.90
28010;DHT22;15334;49.494;8.410;2023-05-29T06:32:04;17.80;99.90
28010;DHT22;15334;49.494;8.410;2023-05-29T06:34:34;17.70;99.90
28010;DHT22;15334;49.494;8.410;2023-05-29T06:37:02;17.80;99.90
28010;DHT22;15334;49.494;8.410;2023-05-29T06:39:30;17.80;99.90
28010;DHT22;15334;49.494;8.410;2023-05-29T06:41:58;17.90;99.90
28010;DHT22;15334;49.494;8.410;2023-05-29T06:44:27;17.90;99.90
28010;DHT22;15334;49.494;8.410;2023-05-29T06:46:56;17.90;99.90
28010;DHT22;15334;49.494;8.410;2023-05-29T06:49:24;17.90;99.90
28010;DHT22;15334;49.494;8.410;2023-05-29T06:51:56;17.90;99.90
28010;DHT22;15334;49.494;8.410;2023-05-29T06:54:24;18.00;99.90
28010;DHT22;15334;49.494;8.410;2023-05-29T06:56:55;18.10;99.90
28010;DHT22;15334;49.494;8.410;2023-05-29T06:59:36;18.10;99.90
28010;DHT22;15334;49.494;8.410;2023-05-29T07:02:05;18.20;99.90
28010;DHT22;15334;49.494;8.410;2023-05-29T07:04:33;18.20;99.90
28010;DHT22;15334;49.494;8.410;2023-05-29T07:07:03;18.30;99.90
28010;DHT22;15334;49.494;8.410;2023-05-29T07:09:32;18.30;99.90
28010;DHT22;15334;49.494;8.410;2023-05-29T07:12:00;18.40;99.90
28010;DHT22;15334;49.494;8.410;2023-05-29T07:14:35;18.40;99.90
28010;DHT22;15334;49.494;8.410;2023-05-29T07:17:03;18.60;99.90
28010;DHT22;15334;49.494;8.410;2023-05-29T07:19:31;18.80;99.50
28010;DHT22;15334;49.494;8.410;2023-05-29T07:22:00;18.90;99.80
28010;DHT22;15334;49.494;8.410;2023-05-29T07:35:10;19.00;98.80
28010;DHT22;15334;49.494;8.410;2023-05-29T07:37:38;19.30;97.60
28010;DHT22;15334;49.494;8.410;2023-05-29T07:40:20;19.40;97.10
28010;DHT22;15334;49.494;8.410;2023-05-29T07:43:04;19.60;97.40
28010;DHT22;15334;49.494;8.410;2023-05-29T07:45:43;19.60;96.20
28010;DHT22;15334;49.494;8.410;2023-05-29T07:48:21;19.70;96.30
28010;DHT22;15334;49.494;8.410;2023-05-29T07:51:05;19.70;97.00
28010;DHT22;15334;49.494;8.410;2023-05-29T07:53:55;19.80;96.50
28010;DHT22;15334;49.494;8.410;2023-05-29T07:56:40;19.80;96.60
28010;DHT22;15334;49.494;8.410;2023-05-29T07:59:26;19.90;96.40
28010;DHT22;15334;49.494;8.410;2023-05-29T08:02:07;19.90;97.20
28010;DHT22;15334;49.494;8.410;2023-05-29T08:04:44;20.00;96.30
28010;DHT22;15334;49.494;8.410;2023-05-29T08:07:55;20.10;97.20
28010;DHT22;15334;49.494;8.410;2023-05-29T08:10:47;20.20;96.30
28010;DHT22;15334;49.494;8.410;2023-05-29T08:13:29;20.40;96.20
28010;DHT22;15334;49.494;8.410;2023-05-29T08:16:27;20.40;96.10
28010;DHT22;15334;49.494;8.410;2023-05-29T08:19:27;20.60;96.50
28010;DHT22;15334;49.494;8.410;2023-05-29T08:22:14;20.70;96.10
28010;DHT22;15334;49.494;8.410;2023-05-29T08:25:06;20.90;94.60
28010;DHT22;15334;49.494;8.410;2023-05-29T08:27:42;21.20;94.40
28010;DHT22;15334;49.494;8.410;2023-05-29T08:30:29;21.30;93.80
28010;DHT22;15334;49.494;8.410;2023-05-29T08:33:13;21.50;93.20
28010;DHT22;15334;49.494;8.410;2023-05-29T08:35:54;21.50;94.30
28010;DHT22;15334;49.494;8.410;2023-05-29T08:38:33;21.60;94.00
28010;DHT22;15334;49.494;8.410;2023-05-29T08:41:05;21.70;94.10
28010;DHT22;15334;49.494;8.410;2023-05-29T08:43:56;21.80;94.30
28010;DHT22;15334;49.494;8.410;2023-05-29T08:46:36;21.90;92.90
28010;DHT22;15334;49.494;8.410;2023-05-29T08:49:12;22.00;94.20
28010;DHT22;15334;49.494;8.410;2023-05-29T08:51:55;22.20;92.10
28010;DHT22;15334;49.494;8.410;2023-05-29T08:54:37;22.20;92.90
28010;DHT22;15334;49.494;8.410;2023-05-29T08:57:14;22.30;92.40
28010;DHT22;15334;49.494;8.410;2023-05-29T08:59:43;22.20;92.60
28010;DHT22;15334;49.494;8.410;2023-05-29T09:02:24;22.30;92.60
28010;DHT22;15334;49.494;8.410;2023-05-29T09:05:20;22.50;93.10
28010;DHT22;15334;49.494;8.410;2023-05-29T09:08:02;22.50;93.20
28010;DHT22;15334;49.494;8.410;2023-05-29T09:10:44;22.60;90.00
28010;DHT22;15334;49.494;8.410;2023-05-29T09:13:35;22.90;90.90
28010;DHT22;15334;49.494;8.410;2023-05-29T09:16:16;23.10;91.20
28010;DHT22;15334;49.494;8.410;2023-05-29T09:19:13;23.20;89.40
28010;DHT22;15334;49.494;8.410;2023-05-29T09:22:22;23.30;90.00
28010;DHT22;15334;49.494;8.410;2023-05-29T09:25:05;23.30;90.30
28010;DHT22;15334;49.494;8.410;2023-05-29T09:27:46;23.50;90.20
28010;DHT22;15334;49.494;8.410;2023-05-29T09:30:35;23.40;89.40
28010;DHT22;15334;49.494;8.410;2023-05-29T09:33:20;23.40;90.00
28010;DHT22;15334;49.494;8.410;2023-05-29T09:35:59;23.60;89.70
28010;DHT22;15334;49.494;8.410;2023-05-29T09:38:50;23.60;88.20
28010;DHT22;15334;49.494;8.410;2023-05-29T09:41:45;23.60;89.50
28010;DHT22;15334;49.494;8.410;2023-05-29T09:44:26;23.70;88.80
28010;DHT22;15334;49.494;8.410;2023-05-29T09:47:06;23.80;86.10
28010;DHT22;15334;49.494;8.410;2023-05-29T09:49:47;23.90;86.90
28010;DHT22;15334;49.494;8.410;2023-05-29T09:52:44;24.00;86.60
28010;DHT22;15334;49.494;8.410;2023-05-29T09:55:47;24.20;82.30
28010;DHT22;15334;49.494;8.410;2023-05-29T09:58:25;24.20;81.80
28010;DHT22;15334;49.494;8.410;2023-05-29T10:01:09;24.40;80.90
28010;DHT22;15334;49.494;8.410;2023-05-29T10:03:53;24.60;81.10
28010;DHT22;15334;49.494;8.410;2023-05-29T10:06:32;24.60;79.90
28010;DHT22;15334;49.494;8.410;2023-05-29T10:12:37;24.60;79.50
28010;DHT22;15334;49.494;8.410;2023-05-29T10:15:11;24.50;80.60
28010;DHT22;15334;49.494;8.410;2023-05-29T10:17:50;24.60;80.40
28010;DHT22;15334;49.494;8.410;2023-05-29T10:20:31;24.60;78.20
28010;DHT22;15334;49.494;8.410;2023-05-29T10:23:26;24.60;79.10
28010;DHT22;15334;49.494;8.410;2023-05-29T10:26:24;24.80;80.20
28010;DHT22;15334;49.494;8.410;2023-05-29T10:29:10;25.10;76.90
28010;DHT22;15334;49.494;8.410;2023-05-29T10:32:13;25.30;75.20
28010;DHT22;15334;49.494;8.410;2023-05-29T10:35:08;25.30;73.20
28010;DHT22;15334;49.494;8.410;2023-05-29T10:37:54;25.40;74.30
28010;DHT22;15334;49.494;8.410;2023-05-29T10:40:35;25.60;71.80
28010;DHT22;15334;49.494;8.410;2023-05-29T10:43:37;25.70;72.10
28010;DHT22;15334;49.494;8.410;2023-05-29T10:49:49;26.10;71.60
28010;DHT22;15334;49.494;8.410;2023-05-29T10:52:32;26.10;74.00
28010;DHT22;15334;49.494;8.410;2023-05-29T10:55:11;26.20;71.00
28010;DHT22;15334;49.494;8.410;2023-05-29T10:57:46;26.10;71.30
28010;DHT22;15334;49.494;8.410;2023-05-29T11:00:23;26.20;70.90
28010;DHT22;15334;49.494;8.410;2023-05-29T11:03:04;26.40;69.90
28010;DHT22;15334;49.494;8.410;2023-05-29T11:05:56;26.60;69.30
28010;DHT22;15334;49.494;8.410;2023-05-29T11:08:41;26.80;66.60
28010;DHT22;15334;49.494;8.410;2023-05-29T11:11:36;26.60;65.80
28010;DHT22;15334;49.494;8.410;2023-05-29T11:14:44;26.60;66.10
28010;DHT22;15334;49.494;8.410;2023-05-29T11:17:33;27.00;65.50
28010;DHT22;15334;49.494;8.410;2023-05-29T11:20:52;27.40;65.40
28010;DHT22;15334;49.494;8.410;2023-05-29T11:23:24;28.30;62.70
28010;DHT22;15334;49.494;8.410;2023-05-29T11:25:59;29.30;60.90
28010;DHT22;15334;49.494;8.410;2023-05-29T11:28:29;29.60;59.60
28010;DHT22;15334;49.494;8.410;2023-05-29T11:30:59;30.20;57.80
28010;DHT22;15334;49.494;8.410;2023-05-29T11:33:32;30.20;58.00
28010;DHT22;15334;49.494;8.410;2023-05-29T11:36:01;30.80;55.70
28010;DHT22;15334;49.494;8.410;2023-05-29T11:38:29;31.90;55.80
28010;DHT22;15334;49.494;8.410;2023-05-29T11:40:57;31.70;55.40
28010;DHT22;15334;49.494;8.410;2023-05-29T11:43:25;32.50;54.70
28010;DHT22;15334;49.494;8.410;2023-05-29T11:45:55;32.60;54.40
28010;DHT22;15334;49.494;8.410;2023-05-29T11:48:23;32.90;54.10
28010;DHT22;15334;49.494;8.410;2023-05-29T11:50:52;33.30;52.20
28010;DHT22;15334;49.494;8.410;2023-05-29T11:53:20;33.90;51.20
28010;DHT22;15334;49.494;8.410;2023-05-29T11:55:48;33.90;51.20
28010;DHT22;15334;49.494;8.410;2023-05-29T11:58:16;34.40;50.60
28010;DHT22;15334;49.494;8.410;2023-05-29T12:00:44;34.90;50.10
28010;DHT22;15334;49.494;8.410;2023-05-29T12:03:18;35.20;49.40
28010;DHT22;15334;49.494;8.410;2023-05-29T12:05:48;35.70;48.60
28010;DHT22;15334;49.494;8.410;2023-05-29T12:08:21;36.40;47.70
28010;DHT22;15334;49.494;8.410;2023-05-29T12:10:50;37.00;47.50
28010;DHT22;15334;49.494;8.410;2023-05-29T12:13:21;37.30;46.20
28010;DHT22;15334;49.494;8.410;2023-05-29T12:15:54;37.60;45.80
28010;DHT22;15334;49.494;8.410;2023-05-29T12:18:25;38.40;45.40
28010;DHT22;15334;49.494;8.410;2023-05-29T12:20:57;38.80;44.70
28010;DHT22;15334;49.494;8.410;2023-05-29T12:23:28;39.20;45.10
28010;DHT22;15334;49.494;8.410;2023-05-29T12:25:56;38.70;45.10
28010;DHT22;15334;49.494;8.410;2023-05-29T12:28:25;37.40;44.90
28010;DHT22;15334;49.494;8.410;2023-05-29T12:30:58;37.30;45.90
28010;DHT22;15334;49.494;8.410;2023-05-29T12:33:32;36.60;45.90
28010;DHT22;15334;49.494;8.410;2023-05-29T12:36:06;36.00;46.50
28010;DHT22;15334;49.494;8.410;2023-05-29T12:38:46;34.90;47.60
28010;DHT22;15334;49.494;8.410;2023-05-29T12:41:25;35.20;47.80
28010;DHT22;15334;49.494;8.410;2023-05-29T12:43:56;36.10;46.90
28010;DHT22;15334;49.494;8.410;2023-05-29T12:46:25;36.30;45.70
28010;DHT22;15334;49.494;8.410;2023-05-29T12:48:57;36.60;45.40
28010;DHT22;15334;49.494;8.410;2023-05-29T12:51:26;37.20;45.10
28010;DHT22;15334;49.494;8.410;2023-05-29T12:53:56;37.00;44.50
28010;DHT22;15334;49.494;8.410;2023-05-29T12:56:25;36.60;45.10
28010;DHT22;15334;49.494;8.410;2023-05-29T12:58:55;36.10;45.60
28010;DHT22;15334;49.494;8.410;2023-05-29T13:01:24;36.90;46.40
28010;DHT22;15334;49.494;8.410;2023-05-29T13:03:52;37.30;44.40
28010;DHT22;15334;49.494;8.410;2023-05-29T13:06:21;36.00;44.40
28010;DHT22;15334;49.494;8.410;2023-05-29T13:08:49;35.80;44.50
28010;DHT22;15334;49.494;8.410;2023-05-29T13:11:17;35.00;45.20
28010;DHT22;15334;49.494;8.410;2023-05-29T13:13:45;34.60;45.80
28010;DHT22;15334;49.494;8.410;2023-05-29T13:16:13;34.80;45.40
28010;DHT22;15334;49.494;8.410;2023-05-29T13:18:41;35.30;44.90
28010;DHT22;15334;49.494;8.410;2023-05-29T13:21:09;36.20;44.20
28010;DHT22;15334;49.494;8.410;2023-05-29T13:23:39;36.70;43.40
28010;DHT22;15334;49.494;8.410;2023-05-29T13:26:07;37.20;43.70
28010;DHT22;15334;49.494;8.410;2023-05-29T13:28:35;37.70;43.50
28010;DHT22;15334;49.494;8.410;2023-05-29T13:31:03;38.40;42.10
28010;DHT22;15334;49.494;8.410;2023-05-29T13:33:31;39.60;41.10
28010;DHT22;15334;49.494;8.410;2023-05-29T13:35:59;39.70;40.50
28010;DHT22;15334;49.494;8.410;2023-05-29T13:38:27;38.60;41.10
28010;DHT22;15334;49.494;8.410;2023-05-29T13:40:57;37.70;41.50
28010;DHT22;15334;49.494;8.410;2023-05-29T13:43:25;37.60;41.50
28010;DHT22;15334;49.494;8.410;2023-05-29T13:46:09;37.00;42.00
28010;DHT22;15334;49.494;8.410;2023-05-29T13:48:37;35.90;43.10
28010;DHT22;15334;49.494;8.410;2023-05-29T13:51:05;35.50;43.60
28010;DHT22;15334;49.494;8.410;2023-05-29T13:53:33;35.30;44.00
28010;DHT22;15334;49.494;8.410;2023-05-29T13:56:03;35.90;43.80
28010;DHT22;15334;49.494;8.410;2023-05-29T13:58:31;37.00;42.60
28010;DHT22;15334;49.494;8.410;2023-05-29T14:00:59;37.20;41.60
28010;DHT22;15334;49.494;8.410;2023-05-29T14:03:27;36.90;42.50
28010;DHT22;15334;49.494;8.410;2023-05-29T14:05:56;36.50;42.50
28010;DHT22;15334;49.494;8.410;2023-05-29T14:08:25;36.90;42.70
28010;DHT22;15334;49.494;8.410;2023-05-29T14:10:54;36.50;42.40
28010;DHT22;15334;49.494;8.410;2023-05-29T14:13:26;36.20;42.90
28010;DHT22;15334;49.494;8.410;2023-05-29T14:15:55;35.30;42.60
28010;DHT22;15334;49.494;8.410;2023-05-29T14:18:24;35.10;43.40
28010;DHT22;15334;49.494;8.410;2023-05-29T14:20:52;34.90;43.60
28010;DHT22;15334;49.494;8.410;2023-05-29T14:23:21;35.50;43.00
28010;DHT22;15334;49.494;8.410;2023-05-29T14:25:49;35.40;43.90
28010;DHT22;15334;49.494;8.410;2023-05-29T14:28:19;35.30;44.20
28010;DHT22;15334;49.494;8.410;2023-05-29T14:30:49;35.10;45.30
28010;DHT22;15334;49.494;8.410;2023-05-29T14:33:18;34.30;45.20
28010;DHT22;15334;49.494;8.410;2023-05-29T14:35:46;33.20;45.80
28010;DHT22;15334;49.494;8.410;2023-05-29T14:38:14;32.30;46.50
28010;DHT22;15334;49.494;8.410;2023-05-29T14:40:42;31.40;47.70
28010;DHT22;15334;49.494;8.410;2023-05-29T14:43:17;30.40;48.70
28010;DHT22;15334;49.494;8.410;2023-05-29T14:45:45;29.50;49.70
28010;DHT22;15334;49.494;8.410;2023-05-29T14:48:14;29.20;50.20
28010;DHT22;15334;49.494;8.410;2023-05-29T14:50:43;28.90;50.50
28010;DHT22;15334;49.494;8.410;2023-05-29T14:53:11;28.70;51.20
28010;DHT22;15334;49.494;8.410;2023-05-29T14:55:39;28.40;51.60
28010;DHT22;15334;49.494;8.410;2023-05-29T14:58:07;28.30;52.30
28010;DHT22;15334;49.494;8.410;2023-05-29T15:00:36;28.10;51.90
28010;DHT22;15334;49.494;8.410;2023-05-29T15:03:33;28.00;52.30
28010;DHT22;15334;49.494;8.410;2023-05-29T15:06:02;28.00;52.30
28010;DHT22;15334;49.494;8.410;2023-05-29T15:08:30;28.00;51.90
28010;DHT22;15334;49.494;8.410;2023-05-29T15:11:01;28.00;52.60
28010;DHT22;15334;49.494;8.410;2023-05-29T15:13:29;28.00;52.80
28010;DHT22;15334;49.494;8.410;2023-05-29T15:15:57;28.10;53.50
28010;DHT22;15334;49.494;8.410;2023-05-29T15:18:26;27.90;53.70
28010;DHT22;15334;49.494;8.410;2023-05-29T15:20:55;27.90;54.30
28010;DHT22;15334;49.494;8.410;2023-05-29T15:23:25;28.00;52.30
28010;DHT22;15334;49.494;8.410;2023-05-29T15:25:53;28.10;52.30
28010;DHT22;15334;49.494;8.410;2023-05-29T15:28:22;28.20;52.90
28010;DHT22;15334;49.494;8.410;2023-05-29T15:30:51;28.10;53.10
28010;DHT22;15334;49.494;8.410;2023-05-29T15:33:19;28.00;53.90
28010;DHT22;15334;49.494;8.410;2023-05-29T15:35:48;27.70;54.20
28010;DHT22;15334;49.494;8.410;2023-05-29T15:38:17;27.50;54.50
28010;DHT22;15334;49.494;8.410;2023-05-29T15:40:46;27.50;54.80
28010;DHT22;15334;49.494;8.410;2023-05-29T15:43:14;27.50;55.30
28010;DHT22;15334;49.494;8.410;2023-05-29T15:45:42;27.60;54.60
28010;DHT22;15334;49.494;8.410;2023-05-29T15:48:10;27.70;54.00
28010;DHT22;15334;49.494;8.410;2023-05-29T15:50:38;27.80;54.00
28010;DHT22;15334;49.494;8.410;2023-05-29T15:53:06;27.80;54.00
28010;DHT22;15334;49.494;8.410;2023-05-29T15:55:36;27.80;54.10
28010;DHT22;15334;49.494;8.410;2023-05-29T15:58:04;27.70;54.30
28010;DHT22;15334;49.494;8.410;2023-05-29T16:00:32;27.80;54.60
28010;DHT22;15334;49.494;8.410;2023-05-29T16:03:00;28.00;54.60
28010;DHT22;15334;49.494;8.410;2023-05-29T16:05:29;28.00;54.80
28010;DHT22;15334;49.494;8.410;2023-05-29T16:07:57;27.90;54.50
28010;DHT22;15334;49.494;8.410;2023-05-29T16:10:25;27.90;54.50
28010;DHT22;15334;49.494;8.410;2023-05-29T16:12:54;27.90;54.60
28010;DHT22;15334;49.494;8.410;2023-05-29T16:15:22;27.80;55.00
28010;DHT22;15334;49.494;8.410;2023-05-29T16:17:51;27.80;55.90
28010;DHT22;15334;49.494;8.410;2023-05-29T16:20:19;27.90;55.50
28010;DHT22;15334;49.494;8.410;2023-05-29T16:22:47;27.70;55.70